Aviation Digital Data Service (ADDS)

Output produced by METARs form (1333 UTC 16 August 2022)
found at http://aviationweather.gov/metar/data/
 
LFLX 161330Z AUTO 32005KT 9999 -RA FEW037/// SCT072/// OVC100/// ///TCU 25/18 Q1009 TEMPO VRB15G30KT 3500 TSRA BKN060CB
TAF LFLX 161100Z 1612/1718 VRB04KT CAVOK 
     PROB40 
     TEMPO 1612/1619 SHRA SCT040 BKN090TCU 
     PROB30 
     TEMPO 1613/1619 VRB15G30KT 3500 TSRA BKN060CB 
     TEMPO 1623/1718 4000 SHRA BKN060TCU 
     PROB40 
     TEMPO 1705/1710 2500 SHRA BKN012 BKN050CB 
     PROB30 
     TEMPO 1714/1718 24015G25KT 2500 TSRA SCT040CB